Time;durP1;ratioP1;P1;durP2;ratioP2;P2;SDS_P1;SDS_P2;PMS_P1;PMS_P2;Temp;Humidity;BMP_temperature;BMP_pressure;BME280_temperature;BME280_humidity;BME280_pressure;Samples;Min_cycle;Max_cycle;Signal;HPM_P1;HPM_P2
2020/12/29 00:00:56;;;;;;;9.07;3.80;;;5.40;99.90;;;;;;4486211;27;656519;-59
2020/12/29 00:03:44;;;;;;;12.93;5.60;;;5.40;99.90;;;;;;4485815;27;656200;-59
2020/12/29 00:06:31;;;;;;;10.97;4.87;;;5.50;99.90;;;;;;4499091;27;658235;-59
2020/12/29 00:09:20;;;;;;;8.70;3.87;;;5.50;99.90;;;;;;4482029;27;657140;-59
2020/12/29 00:12:08;;;;;;;8.27;4.23;;;5.50;99.90;;;;;;4482879;27;657439;-61
2020/12/29 00:14:55;;;;;;;11.93;5.13;;;5.50;99.90;;;;;;4492616;27;657039;-59
2020/12/29 00:17:42;;;;;;;9.73;4.40;;;5.50;99.90;;;;;;4466046;27;656392;-61
2020/12/29 00:20:29;;;;;;;9.70;4.40;;;5.50;99.90;;;;;;4497579;27;657683;-59
2020/12/29 00:23:16;;;;;;;8.38;4.07;;;5.50;99.90;;;;;;4498572;27;656117;-59
2020/12/29 00:26:03;;;;;;;9.97;4.70;;;5.50;99.90;;;;;;4471158;27;656108;-59
2020/12/29 00:28:51;;;;;;;8.73;4.37;;;5.40;99.90;;;;;;4497569;27;657095;-59
2020/12/29 00:31:38;;;;;;;12.57;5.33;;;5.40;99.90;;;;;;4475935;27;655299;-60
2020/12/29 00:34:25;;;;;;;11.57;4.90;;;5.40;99.90;;;;;;4499127;27;657406;-59
2020/12/29 00:37:12;;;;;;;8.57;4.63;;;5.30;99.90;;;;;;4464840;27;656925;-61
2020/12/29 00:39:59;;;;;;;9.13;4.43;;;5.20;99.90;;;;;;4502608;27;657228;-59
2020/12/29 00:42:46;;;;;;;12.57;4.83;;;5.10;99.90;;;;;;4495002;27;655432;-59
2020/12/29 00:45:34;;;;;;;13.77;6.07;;;5.10;99.90;;;;;;4462588;27;658212;-60
2020/12/29 00:48:22;;;;;;;13.27;6.30;;;5.00;99.90;;;;;;4497285;27;656205;-59
2020/12/29 00:51:10;;;;;;;14.90;6.10;;;5.00;99.90;;;;;;4467106;27;657477;-59
2020/12/29 00:53:57;;;;;;;13.27;5.23;;;5.00;99.90;;;;;;4478773;27;656346;-61
2020/12/29 00:56:44;;;;;;;13.10;5.43;;;5.00;99.90;;;;;;4490183;27;658698;-59
2020/12/29 00:59:31;;;;;;;10.27;5.00;;;5.00;99.90;;;;;;4489931;27;657493;-59
2020/12/29 01:02:19;;;;;;;12.97;4.87;;;5.00;99.90;;;;;;4473787;27;656522;-59
2020/12/29 01:05:06;;;;;;;10.93;4.72;;;4.90;99.90;;;;;;4489230;27;657042;-59
2020/12/29 01:07:54;;;;;;;10.03;4.93;;;4.90;99.90;;;;;;4465396;27;658073;-59
2020/12/29 01:10:42;;;;;;;10.60;3.90;;;4.90;99.90;;;;;;4485785;27;656127;-60
2020/12/29 01:13:29;;;;;;;8.30;3.93;;;5.00;99.90;;;;;;4455327;27;656517;-58
2020/12/29 01:16:16;;;;;;;10.20;4.50;;;5.10;99.90;;;;;;4497814;27;656172;-59
2020/12/29 01:19:03;;;;;;;7.60;3.47;;;5.20;99.90;;;;;;4469039;27;657640;-59
2020/12/29 01:21:52;;;;;;;7.53;3.60;;;5.20;99.90;;;;;;4497815;27;656731;-59
2020/12/29 01:24:39;;;;;;;11.10;3.37;;;5.20;99.90;;;;;;4471174;27;656514;-60
2020/12/29 01:27:26;;;;;;;9.57;3.97;;;5.20;99.90;;;;;;4496256;27;657050;-60
2020/12/29 01:30:13;;;;;;;7.13;3.40;;;5.30;99.90;;;;;;4463561;27;655495;-60
2020/12/29 01:33:00;;;;;;;10.07;3.90;;;5.40;99.90;;;;;;4477489;27;657390;-59
2020/12/29 01:35:48;;;;;;;10.90;4.20;;;5.40;99.90;;;;;;4462497;27;656362;-61
2020/12/29 01:38:35;;;;;;;10.33;3.80;;;5.60;99.90;;;;;;4495199;27;657580;-59
2020/12/29 01:41:22;;;;;;;9.87;3.90;;;5.60;99.90;;;;;;4488063;27;656747;-60
2020/12/29 01:44:13;;;;;;;10.17;4.37;;;5.60;99.90;;;;;;4501397;27;656841;-60
2020/12/29 01:47:00;;;;;;;7.77;3.47;;;5.70;99.90;;;;;;4458040;27;658109;-59
2020/12/29 01:49:47;;;;;;;8.97;3.93;;;5.70;99.90;;;;;;4478745;27;655784;-61
2020/12/29 01:52:36;;;;;;;8.37;3.97;;;5.80;99.90;;;;;;4489316;27;657477;-59
2020/12/29 01:55:22;;;;;;;6.23;3.27;;;5.80;99.90;;;;;;4470763;27;657060;-59
2020/12/29 01:58:09;;;;;;;6.97;3.63;;;5.90;99.90;;;;;;4482467;27;657558;-60
2020/12/29 02:00:56;;;;;;;5.77;2.83;;;5.90;99.90;;;;;;4496226;27;656264;-58
2020/12/29 02:03:43;;;;;;;5.73;2.80;;;5.90;99.90;;;;;;4469722;27;655747;-58
2020/12/29 02:06:30;;;;;;;4.30;2.50;;;5.90;99.90;;;;;;4497122;27;656889;-60
2020/12/29 02:09:18;;;;;;;7.63;2.77;;;6.00;99.90;;;;;;4469758;27;655436;-60
2020/12/29 02:12:21;;;;;;;4.63;2.37;;;6.10;99.90;;;;;;4490784;27;656393;-59
2020/12/29 02:15:08;;;;;;;6.73;3.73;;;6.10;99.90;;;;;;4438331;27;657536;-60
2020/12/29 02:17:55;;;;;;;4.43;2.60;;;6.10;99.90;;;;;;4490906;27;656658;-59
2020/12/29 02:20:42;;;;;;;3.23;2.30;;;6.20;99.90;;;;;;4476040;27;656473;-60
2020/12/29 02:23:30;;;;;;;6.10;2.53;;;6.30;99.90;;;;;;4497236;27;656746;-59
2020/12/29 02:26:17;;;;;;;8.50;3.60;;;6.30;99.90;;;;;;4474282;27;655630;-61
2020/12/29 02:29:05;;;;;;;7.32;3.10;;;6.30;99.90;;;;;;4504876;27;655586;-60
2020/12/29 02:31:52;;;;;;;4.18;2.72;;;6.30;99.90;;;;;;4469650;27;655498;-61
2020/12/29 02:34:39;;;;;;;5.67;2.80;;;6.40;99.90;;;;;;4504656;27;657080;-59
2020/12/29 02:37:26;;;;;;;5.03;3.17;;;6.40;99.90;;;;;;4498100;27;655922;-59
2020/12/29 02:40:14;;;;;;;4.35;2.40;;;6.30;99.90;;;;;;4480220;27;656144;-60
2020/12/29 02:43:02;;;;;;;4.43;2.40;;;6.30;99.90;;;;;;4488785;27;655443;-59
2020/12/29 02:45:52;;;;;;;4.90;2.50;;;6.40;99.90;;;;;;4478260;27;655388;-60
2020/12/29 02:48:39;;;;;;;3.50;2.20;;;6.40;99.90;;;;;;4464749;27;657657;-60
2020/12/29 02:51:26;;;;;;;5.30;2.10;;;6.50;99.90;;;;;;4492574;27;657032;-59
2020/12/29 02:54:13;;;;;;;5.90;2.40;;;6.50;99.90;;;;;;4464478;27;657101;-61
2020/12/29 02:57:01;;;;;;;3.40;2.10;;;6.40;99.90;;;;;;4495658;27;656718;-59
2020/12/29 02:59:48;;;;;;;4.43;2.30;;;6.50;99.90;;;;;;4475553;27;657071;-60
2020/12/29 03:02:34;;;;;;;3.60;2.20;;;6.50;99.90;;;;;;4500026;27;657715;-58
2020/12/29 03:05:21;;;;;;;4.23;2.20;;;6.40;99.90;;;;;;4494374;27;656455;-60
2020/12/29 03:08:09;;;;;;;3.40;2.20;;;6.40;99.90;;;;;;4481419;27;655393;-59
2020/12/29 03:10:56;;;;;;;8.17;3.00;;;6.30;99.90;;;;;;4497078;27;656707;-59
2020/12/29 03:13:44;;;;;;;4.40;2.53;;;6.20;99.90;;;;;;4478467;27;656053;-60
2020/12/29 03:16:31;;;;;;;4.20;2.13;;;6.20;99.90;;;;;;4482530;27;656105;-59
2020/12/29 03:19:18;;;;;;;3.67;2.40;;;6.10;99.90;;;;;;4469468;27;656408;-60
2020/12/29 03:22:05;;;;;;;6.13;3.67;;;6.10;99.90;;;;;;4507928;27;656953;-59
2020/12/29 03:24:52;;;;;;;9.80;3.80;;;6.10;99.90;;;;;;4489398;27;655465;-61
2020/12/29 03:27:39;;;;;;;7.10;3.53;;;6.10;99.90;;;;;;4497091;27;656318;-59
2020/12/29 03:30:27;;;;;;;10.20;4.43;;;6.00;99.90;;;;;;4499365;27;655426;-59
2020/12/29 03:33:14;;;;;;;5.40;2.83;;;5.90;99.90;;;;;;4470186;27;657985;-59
2020/12/29 03:36:01;;;;;;;10.93;3.00;;;5.90;99.90;;;;;;4499196;27;655373;-59
2020/12/29 03:38:48;;;;;;;7.33;2.67;;;5.90;99.90;;;;;;4478289;27;657109;-60
2020/12/29 03:41:35;;;;;;;7.87;4.43;;;5.90;99.90;;;;;;4491452;27;656402;-59
2020/12/29 03:44:22;;;;;;;4.93;2.80;;;5.90;99.90;;;;;;4462998;27;655587;-60
2020/12/29 03:47:10;;;;;;;6.43;3.40;;;6.00;99.90;;;;;;4497950;27;657153;-60
2020/12/29 03:49:57;;;;;;;4.57;3.00;;;5.90;99.90;;;;;;4480659;27;655388;-61
2020/12/29 03:52:45;;;;;;;4.00;2.70;;;5.90;99.90;;;;;;4488916;27;656701;-59
2020/12/29 03:55:32;;;;;;;4.20;2.50;;;6.00;99.90;;;;;;4485655;27;655389;-60
2020/12/29 03:58:19;;;;;;;4.83;2.50;;;6.10;99.90;;;;;;4490150;27;657069;-59
2020/12/29 04:01:06;;;;;;;4.70;2.57;;;6.10;99.90;;;;;;4501793;27;655392;-59
2020/12/29 04:03:54;;;;;;;6.50;3.10;;;6.20;99.90;;;;;;4464278;27;655528;-59
2020/12/29 04:06:41;;;;;;;3.73;2.40;;;6.20;99.90;;;;;;4497601;27;656159;-59
2020/12/29 04:09:29;;;;;;;2.47;1.70;;;6.10;99.90;;;;;;4467758;27;655576;-60
2020/12/29 04:12:16;;;;;;;3.40;2.10;;;6.10;99.90;;;;;;4493013;27;656363;-59
2020/12/29 04:15:03;;;;;;;4.50;1.70;;;6.10;99.90;;;;;;4476421;27;655621;-60
2020/12/29 04:17:50;;;;;;;9.93;2.22;;;6.00;99.90;;;;;;4498718;27;657572;-59
2020/12/29 04:20:38;;;;;;;2.70;1.93;;;6.10;99.90;;;;;;4468742;27;655356;-61
2020/12/29 04:23:25;;;;;;;6.83;1.57;;;6.10;99.90;;;;;;4499622;27;656532;-59
2020/12/29 04:26:13;;;;;;;4.43;2.10;;;6.20;99.90;;;;;;4488936;27;657022;-62
2020/12/29 04:29:00;;;;;;;2.93;2.13;;;6.20;99.90;;;;;;4499834;27;656402;-59
2020/12/29 04:31:47;;;;;;;8.00;2.80;;;6.10;99.90;;;;;;4497305;27;655441;-61
2020/12/29 04:34:34;;;;;;;6.13;2.50;;;6.20;99.90;;;;;;4500286;27;657612;-60
2020/12/29 04:37:22;;;;;;;6.20;2.70;;;6.10;99.90;;;;;;4485290;27;655427;-59
2020/12/29 04:40:09;;;;;;;5.20;2.60;;;6.10;99.90;;;;;;4473568;27;657008;-59
2020/12/29 04:42:56;;;;;;;4.73;2.67;;;6.10;99.90;;;;;;4491968;27;656019;-59
2020/12/29 04:45:43;;;;;;;4.22;2.50;;;6.10;99.90;;;;;;4479539;27;655586;-60
2020/12/29 04:48:30;;;;;;;3.03;1.90;;;6.00;99.90;;;;;;4490745;27;657025;-59
2020/12/29 04:51:17;;;;;;;4.32;2.20;;;6.10;99.90;;;;;;4477367;27;655358;-61
2020/12/29 04:54:07;;;;;;;5.17;2.47;;;6.20;99.90;;;;;;4492004;27;655470;-61
2020/12/29 04:56:55;;;;;;;4.73;2.27;;;6.10;99.90;;;;;;4470045;27;657418;-59
2020/12/29 04:59:42;;;;;;;3.73;2.07;;;6.10;99.90;;;;;;4479608;27;656131;-61
2020/12/29 05:02:29;;;;;;;5.13;1.87;;;6.10;99.90;;;;;;4485220;27;656548;-60
2020/12/29 05:05:16;;;;;;;4.67;2.27;;;6.10;99.90;;;;;;4496825;27;657262;-60
2020/12/29 05:08:03;;;;;;;7.07;2.70;;;6.10;99.90;;;;;;4478887;27;655487;-60
2020/12/29 05:10:51;;;;;;;5.50;2.50;;;6.10;99.90;;;;;;4498195;27;657120;-60
2020/12/29 05:13:38;;;;;;;5.83;1.93;;;6.10;99.90;;;;;;4461811;27;656369;-59
2020/12/29 05:16:29;;;;;;;10.03;3.20;;;6.10;99.90;;;;;;4493845;27;656326;-59
2020/12/29 05:19:17;;;;;;;4.80;2.57;;;6.10;99.90;;;;;;4464394;27;657295;-60
2020/12/29 05:22:04;;;;;;;5.57;2.30;;;6.10;99.90;;;;;;4472354;27;656020;-59
2020/12/29 05:24:50;;;;;;;5.13;2.40;;;6.00;99.90;;;;;;4497934;27;656684;-58
2020/12/29 05:27:38;;;;;;;4.17;2.07;;;6.00;99.90;;;;;;4486324;27;655410;-60
2020/12/29 05:30:25;;;;;;;4.57;2.67;;;6.20;99.90;;;;;;4497491;27;656327;-59
2020/12/29 05:33:12;;;;;;;3.20;1.77;;;6.10;99.90;;;;;;4478569;27;656237;-61
2020/12/29 05:36:00;;;;;;;3.10;1.80;;;6.30;99.90;;;;;;4496636;27;657155;-59
2020/12/29 05:38:47;;;;;;;4.03;2.50;;;6.40;99.90;;;;;;4479776;27;655830;-61
2020/12/29 05:41:37;;;;;;;4.23;2.70;;;6.20;99.90;;;;;;4510178;27;655862;-58
2020/12/29 05:44:26;;;;;;;4.90;2.63;;;6.20;99.90;;;;;;4468242;27;656464;-59
2020/12/29 05:47:13;;;;;;;7.83;2.60;;;6.10;99.90;;;;;;4471994;27;655362;-59
2020/12/29 05:50:06;;;;;;;4.90;2.50;;;6.20;99.90;;;;;;4491571;27;655355;-59
2020/12/29 05:52:53;;;;;;;4.55;2.30;;;6.00;99.90;;;;;;4449212;27;655361;-59
2020/12/29 05:55:40;;;;;;;5.50;2.20;;;6.00;99.90;;;;;;4479696;27;655966;-59
2020/12/29 05:58:27;;;;;;;4.07;2.00;;;6.00;99.90;;;;;;4476520;27;655461;-60
2020/12/29 06:01:15;;;;;;;8.57;2.50;;;6.10;99.90;;;;;;4475825;27;657685;-59
2020/12/29 06:04:03;;;;;;;3.50;2.07;;;6.10;99.90;;;;;;4440777;28;656496;-60
2020/12/29 06:06:50;;;;;;;3.83;1.83;;;6.00;99.90;;;;;;4493339;27;656374;-59
2020/12/29 06:09:37;;;;;;;1.20;0.80;;;6.00;99.90;;;;;;4470994;27;655545;-60
2020/12/29 06:12:31;;;;;;;1.23;0.90;;;6.20;99.90;;;;;;4492895;27;656970;-60
2020/12/29 06:15:22;;;;;;;2.75;1.30;;;6.20;99.90;;;;;;4444414;27;656996;-59
2020/12/29 06:18:10;;;;;;;4.07;1.67;;;6.10;99.90;;;;;;4459284;27;656414;-59
2020/12/29 06:20:58;;;;;;;1.30;0.77;;;6.10;99.90;;;;;;4466279;27;655301;-60
2020/12/29 06:23:47;;;;;;;1.53;0.67;;;6.10;99.90;;;;;;4495762;27;656542;-60
2020/12/29 06:26:34;;;;;;;0.70;0.40;;;6.00;99.90;;;;;;4464579;27;657204;-59
2020/12/29 06:29:22;;;;;;;3.60;1.30;;;5.90;99.90;;;;;;4496354;27;656429;-59
2020/12/29 06:32:13;;;;;;;2.73;1.00;;;6.00;99.90;;;;;;4473419;27;655933;-59
2020/12/29 06:35:01;;;;;;;1.97;1.00;;;5.80;99.90;;;;;;4481639;27;656019;-59
2020/12/29 06:37:52;;;;;;;1.83;0.97;;;5.70;99.90;;;;;;4483436;27;655778;-60
2020/12/29 06:40:39;;;;;;;1.83;0.80;;;5.40;99.90;;;;;;4467401;27;657941;-59
2020/12/29 06:43:29;;;;;;;3.03;0.90;;;5.10;99.90;;;;;;4497710;27;657035;-59
2020/12/29 06:46:16;;;;;;;2.30;1.13;;;4.80;99.90;;;;;;4455377;27;656393;-59
2020/12/29 06:49:18;;;;;;;4.03;1.13;;;4.70;99.90;;;;;;4466660;27;655528;-60
2020/12/29 06:52:17;;;;;;;1.97;1.00;;;4.60;99.90;;;;;;4462195;27;656482;-59
2020/12/29 06:55:04;;;;;;;2.37;1.43;;;4.50;99.90;;;;;;4449677;27;656999;-60
2020/12/29 06:57:51;;;;;;;1.47;0.60;;;4.30;99.90;;;;;;4479661;27;656737;-59
2020/12/29 07:00:38;;;;;;;2.57;1.00;;;4.10;99.90;;;;;;4474304;27;655531;-60
2020/12/29 07:03:32;;;;;;;1.55;1.00;;;4.00;99.90;;;;;;4491279;27;657311;-59
2020/12/29 07:06:19;;;;;;;2.33;1.10;;;3.80;99.90;;;;;;4443435;27;656365;-60
2020/12/29 07:09:26;;;;;;;2.63;0.97;;;3.70;99.90;;;;;;4500480;27;655280;-61
2020/12/29 07:12:13;;;;;;;5.73;1.30;;;3.70;99.90;;;;;;4448607;27;655701;-61
2020/12/29 07:15:00;;;;;;;3.20;1.40;;;3.70;99.90;;;;;;4491940;27;655301;-61
2020/12/29 07:17:54;;;;;;;3.70;2.00;;;3.60;99.90;;;;;;4467418;27;655413;-62
2020/12/29 07:20:41;;;;;;;2.73;1.60;;;3.60;99.90;;;;;;4476190;27;655836;-61
2020/12/29 07:23:29;;;;;;;4.27;2.67;;;3.50;99.90;;;;;;4474796;27;656328;-62
2020/12/29 07:26:17;;;;;;;4.23;2.40;;;3.50;99.90;;;;;;4482001;27;656196;-62
2020/12/29 07:29:06;;;;;;;3.53;2.13;;;3.50;99.90;;;;;;4467440;27;655957;-61
2020/12/29 07:31:52;;;;;;;4.37;2.57;;;3.50;99.90;;;;;;4470807;27;655605;-63
2020/12/29 07:34:39;;;;;;;5.27;2.27;;;3.50;99.90;;;;;;4503797;27;657338;-61
2020/12/29 07:37:29;;;;;;;4.63;2.40;;;3.50;99.90;;;;;;4482982;27;656180;-62
2020/12/29 07:40:16;;;;;;;5.90;3.03;;;3.50;99.90;;;;;;4459059;27;656019;-62
2020/12/29 07:43:05;;;;;;;5.03;3.37;;;3.60;99.90;;;;;;4481410;27;655163;-62
2020/12/29 07:45:52;;;;;;;6.07;3.03;;;3.60;99.90;;;;;;4481855;27;655434;-63
2020/12/29 07:48:39;;;;;;;7.30;4.13;;;3.60;99.90;;;;;;4481432;27;656312;-62
2020/12/29 07:51:26;;;;;;;7.50;4.33;;;3.60;99.90;;;;;;4504163;27;655376;-62
2020/12/29 07:54:13;;;;;;;10.33;4.87;;;3.60;99.90;;;;;;4483137;27;656644;-62
2020/12/29 07:57:00;;;;;;;9.23;5.20;;;3.60;99.90;;;;;;4495178;27;657846;-61
2020/12/29 07:59:48;;;;;;;9.85;4.70;;;3.60;99.90;;;;;;4459072;27;657042;-64
2020/12/29 08:02:35;;;;;;;11.77;5.27;;;3.60;99.90;;;;;;4473019;27;656810;-61
2020/12/29 08:05:22;;;;;;;9.60;4.83;;;3.60;99.90;;;;;;4456014;27;656605;-62
2020/12/29 08:08:09;;;;;;;8.67;4.60;;;3.70;99.90;;;;;;4477539;27;655955;-61
2020/12/29 08:10:56;;;;;;;12.00;5.07;;;3.60;99.90;;;;;;4473341;27;655418;-61
2020/12/29 08:13:43;;;;;;;12.20;5.07;;;3.80;99.90;;;;;;4468889;27;656894;-62
2020/12/29 08:16:31;;;;;;;7.50;3.90;;;4.00;99.90;;;;;;4476547;27;657506;-61
2020/12/29 08:19:18;;;;;;;5.38;3.22;;;4.10;99.90;;;;;;4463475;27;656061;-61
2020/12/29 08:22:07;;;;;;;7.55;3.67;;;4.40;99.90;;;;;;4498846;27;657059;-61
2020/12/29 08:24:54;;;;;;;4.13;2.57;;;4.60;99.90;;;;;;4459781;27;655503;-60
2020/12/29 08:27:42;;;;;;;5.80;3.30;;;5.10;99.90;;;;;;4494888;27;656380;-60
2020/12/29 08:30:29;;;;;;;6.27;3.30;;;5.40;99.90;;;;;;4472519;27;657206;-61
2020/12/29 08:33:19;;;;;;;7.50;3.70;;;5.60;99.90;;;;;;4496853;27;656192;-60
2020/12/29 08:36:06;;;;;;;5.73;2.57;;;5.70;99.90;;;;;;4475897;27;655680;-60
2020/12/29 08:39:22;;;;;;;7.60;3.70;;;5.90;99.90;;;;;;4468794;27;655278;-60
2020/12/29 08:42:10;;;;;;;4.40;1.73;;;5.90;99.90;;;;;;4473120;27;655955;-60
2020/12/29 08:44:57;;;;;;;5.50;2.57;;;6.20;99.90;;;;;;4499650;27;656271;-61
2020/12/29 08:47:44;;;;;;;4.93;3.10;;;6.60;93.60;;;;;;4472417;27;656381;-60
2020/12/29 08:50:34;;;;;;;10.93;2.40;;;6.80;88.20;;;;;;4496329;27;655697;-60
2020/12/29 08:53:24;;;;;;;4.22;2.10;;;7.00;84.00;;;;;;4461909;27;657388;-60
2020/12/29 08:56:21;;;;;;;6.27;2.90;;;7.00;86.10;;;;;;4469037;27;655648;-59
2020/12/29 08:59:09;;;;;;;9.10;2.73;;;7.10;84.70;;;;;;4459304;27;657804;-61
2020/12/29 09:01:57;;;;;;;5.30;2.50;;;7.10;85.30;;;;;;4490863;27;655668;-59
2020/12/29 09:04:44;;;;;;;6.37;3.03;;;6.80;87.20;;;;;;4459688;27;656173;-59
2020/12/29 09:07:40;;;;;;;5.83;3.27;;;7.00;85.70;;;;;;4488560;27;656085;-59
2020/12/29 09:10:27;;;;;;;4.90;2.67;;;7.30;84.00;;;;;;4450356;27;655407;-60
2020/12/29 09:13:14;;;;;;;8.40;3.83;;;7.40;82.00;;;;;;4494545;27;656190;-59
2020/12/29 09:16:10;;;;;;;10.97;4.57;;;7.30;80.70;;;;;;4489119;27;655214;-59
2020/12/29 09:18:57;;;;;;;7.70;3.37;;;7.60;82.20;;;;;;4440327;27;657278;-61
2020/12/29 09:21:45;;;;;;;7.43;2.50;;;7.50;79.20;;;;;;4489784;27;655966;-59
2020/12/29 09:24:33;;;;;;;8.77;3.83;;;7.70;78.40;;;;;;4477243;27;656795;-61
2020/12/29 09:27:29;;;;;;;7.78;3.50;;;7.80;75.80;;;;;;4486385;27;656913;-60
2020/12/29 09:30:16;;;;;;;5.23;2.30;;;8.30;71.70;;;;;;4463223;27;655653;-59
2020/12/29 09:33:03;;;;;;;6.97;3.27;;;8.00;72.10;;;;;;4473457;27;656166;-59
2020/12/29 09:35:50;;;;;;;7.07;2.53;;;8.20;72.00;;;;;;4494070;27;656169;-60
2020/12/29 09:38:37;;;;;;;5.38;2.63;;;8.60;71.70;;;;;;4474312;27;655278;-62
2020/12/29 09:41:25;;;;;;;10.23;3.57;;;8.80;70.00;;;;;;4501957;27;656457;-60
2020/12/29 09:44:12;;;;;;;14.07;4.07;;;9.00;67.20;;;;;;4470659;27;656807;-61
2020/12/29 09:46:59;;;;;;;3.83;2.37;;;8.80;69.00;;;;;;4503033;27;657460;-60
2020/12/29 09:49:46;;;;;;;5.60;1.90;;;9.50;65.90;;;;;;4488283;27;656450;-60
2020/12/29 09:52:33;;;;;;;3.97;1.57;;;9.60;66.10;;;;;;4466685;27;656841;-61
2020/12/29 09:55:20;;;;;;;4.43;2.23;;;9.60;63.20;;;;;;4501653;27;656359;-59
2020/12/29 09:58:08;;;;;;;6.75;2.30;;;9.90;61.00;;;;;;4467599;27;655516;-61
2020/12/29 10:00:56;;;;;;;10.40;4.22;;;10.10;58.60;;;;;;4501616;27;657489;-60
2020/12/29 10:03:43;;;;;;;5.03;2.40;;;10.50;58.30;;;;;;4475013;27;657666;-61
2020/12/29 10:06:31;;;;;;;5.37;1.63;;;10.90;58.10;;;;;;4495745;27;657927;-60
2020/12/29 10:09:18;;;;;;;3.93;2.13;;;11.30;54.80;;;;;;4471499;27;656282;-59
2020/12/29 10:12:05;;;;;;;4.63;1.73;;;11.30;54.60;;;;;;4505634;27;657206;-59
2020/12/29 10:14:53;;;;;;;4.23;1.90;;;11.30;53.40;;;;;;4486000;27;657792;-61
2020/12/29 10:17:40;;;;;;;6.20;1.63;;;10.40;54.10;;;;;;4488409;27;657387;-59
2020/12/29 10:20:27;;;;;;;5.77;2.10;;;10.40;55.00;;;;;;4480899;27;656740;-61
2020/12/29 10:23:14;;;;;;;5.87;1.97;;;10.40;55.60;;;;;;4491039;27;658399;-59
2020/12/29 10:26:01;;;;;;;4.47;2.30;;;10.80;55.50;;;;;;4487922;27;656567;-60
2020/12/29 10:28:48;;;;;;;4.77;2.30;;;11.60;53.70;;;;;;4475284;27;656471;-59
2020/12/29 10:31:36;;;;;;;4.40;1.90;;;12.20;52.70;;;;;;4487552;27;657928;-60
2020/12/29 10:34:23;;;;;;;3.50;2.07;;;12.50;50.80;;;;;;4468090;27;656931;-60
2020/12/29 10:37:10;;;;;;;4.73;2.20;;;12.70;50.20;;;;;;4485394;27;657854;-60
2020/12/29 10:39:57;;;;;;;7.67;1.90;;;12.00;51.70;;;;;;4464542;27;657457;-60
2020/12/29 10:42:44;;;;;;;5.97;2.93;;;11.50;51.80;;;;;;4503854;27;657934;-59
2020/12/29 10:45:31;;;;;;;6.83;2.50;;;10.60;52.90;;;;;;4486879;27;657708;-59
2020/12/29 10:48:21;;;;;;;5.57;2.37;;;11.30;54.40;;;;;;4468511;27;656620;-60
2020/12/29 10:51:08;;;;;;;4.60;2.40;;;11.30;51.90;;;;;;4480589;27;656491;-61
2020/12/29 10:53:55;;;;;;;4.50;2.00;;;11.90;52.20;;;;;;4491540;27;658138;-59
2020/12/29 10:56:42;;;;;;;3.40;2.10;;;12.70;51.20;;;;;;4481281;27;656914;-61
2020/12/29 10:59:29;;;;;;;7.47;2.97;;;12.60;50.00;;;;;;4503695;27;657769;-59
2020/12/29 11:02:16;;;;;;;5.53;1.90;;;13.00;49.40;;;;;;4495539;27;657725;-59
2020/12/29 11:05:04;;;;;;;4.43;1.87;;;13.60;48.80;;;;;;4466137;27;657865;-60
2020/12/29 11:07:51;;;;;;;3.47;1.97;;;13.10;47.60;;;;;;4494359;27;656812;-60
2020/12/29 11:10:38;;;;;;;2.33;0.97;;;12.80;49.10;;;;;;4470053;27;658011;-60
2020/12/29 11:13:25;;;;;;;3.13;1.40;;;13.30;47.20;;;;;;4498558;27;657838;-59
2020/12/29 11:16:15;;;;;;;7.00;1.33;;;13.50;48.70;;;;;;4481225;27;656556;-61
2020/12/29 11:19:02;;;;;;;4.90;1.97;;;13.90;47.10;;;;;;4478689;27;656929;-61
2020/12/29 11:21:50;;;;;;;2.87;1.53;;;13.70;46.60;;;;;;4486876;27;656540;-59
2020/12/29 11:24:37;;;;;;;7.47;2.13;;;12.90;48.00;;;;;;4477136;27;657153;-60
2020/12/29 11:27:24;;;;;;;4.53;2.20;;;13.30;48.40;;;;;;4483890;27;657368;-59
2020/12/29 11:30:11;;;;;;;5.27;2.40;;;14.20;46.90;;;;;;4497809;27;657509;-60
2020/12/29 11:32:58;;;;;;;2.93;1.40;;;14.70;44.10;;;;;;4466141;27;656625;-59
2020/12/29 11:35:47;;;;;;;4.03;1.43;;;15.60;44.10;;;;;;4490600;27;658248;-59
2020/12/29 11:38:35;;;;;;;4.23;1.73;;;14.70;44.00;;;;;;4468922;27;657718;-60
2020/12/29 11:41:22;;;;;;;3.67;1.20;;;14.80;44.50;;;;;;4489460;27;656926;-61
2020/12/29 11:44:09;;;;;;;5.20;1.73;;;15.00;42.40;;;;;;4497396;27;658700;-59
2020/12/29 11:46:56;;;;;;;3.10;1.50;;;15.50;43.90;;;;;;4496493;27;657019;-58
2020/12/29 11:49:43;;;;;;;2.43;0.93;;;15.00;43.40;;;;;;4465442;27;656613;-59
2020/12/29 11:52:30;;;;;;;2.97;0.80;;;14.40;42.70;;;;;;4495910;27;657092;-59
2020/12/29 11:55:18;;;;;;;2.57;1.50;;;13.60;45.70;;;;;;4488238;27;656468;-60
2020/12/29 11:58:05;;;;;;;2.40;1.47;;;13.90;44.70;;;;;;4493266;27;657553;-60
2020/12/29 12:00:52;;;;;;;1.93;0.97;;;14.40;44.30;;;;;;4481534;27;656571;-61
2020/12/29 12:03:39;;;;;;;6.17;1.87;;;14.80;43.20;;;;;;4484949;27;657147;-59
2020/12/29 12:06:32;;;;;;;3.08;1.40;;;15.40;42.90;;;;;;4489207;27;656338;-60
2020/12/29 12:09:19;;;;;;;2.80;1.47;;;17.00;43.20;;;;;;4467373;27;656400;-60
2020/12/29 12:12:07;;;;;;;3.83;1.60;;;18.30;38.40;;;;;;4484886;27;657782;-59
2020/12/29 12:14:54;;;;;;;3.00;1.60;;;18.30;37.60;;;;;;4473248;27;658684;-60
2020/12/29 12:17:41;;;;;;;4.27;1.70;;;18.90;37.50;;;;;;4489322;27;657249;-59
2020/12/29 12:20:28;;;;;;;1.67;1.03;;;18.70;36.90;;;;;;4471975;27;657195;-60
2020/12/29 12:23:15;;;;;;;4.43;2.10;;;18.60;35.50;;;;;;4486628;27;657912;-59
2020/12/29 12:26:02;;;;;;;3.90;1.73;;;18.00;36.20;;;;;;4491236;27;656598;-60
2020/12/29 12:28:50;;;;;;;3.90;1.73;;;17.20;37.20;;;;;;4483133;27;658235;-59
2020/12/29 12:31:37;;;;;;;3.17;1.33;;;18.10;37.00;;;;;;4468078;27;656496;-60
2020/12/29 12:34:24;;;;;;;3.63;1.93;;;18.60;35.70;;;;;;4499313;27;657192;-59
2020/12/29 12:37:11;;;;;;;5.57;2.23;;;19.40;36.30;;;;;;4496356;27;657897;-59
2020/12/29 12:39:58;;;;;;;4.73;2.30;;;19.10;35.40;;;;;;4467851;27;656222;-60
2020/12/29 12:42:45;;;;;;;5.20;2.10;;;19.50;35.30;;;;;;4445472;28;657766;-59
2020/12/29 12:45:33;;;;;;;4.10;1.80;;;19.30;34.60;;;;;;4484552;27;656547;-60
2020/12/29 12:48:20;;;;;;;4.93;2.17;;;19.00;35.60;;;;;;4488880;27;656692;-59
2020/12/29 12:51:07;;;;;;;5.53;2.00;;;20.00;34.20;;;;;;4472351;27;656401;-61
2020/12/29 12:53:54;;;;;;;4.37;2.20;;;20.20;32.80;;;;;;4491211;27;656571;-59
2020/12/29 12:56:43;;;;;;;5.40;2.13;;;19.50;34.10;;;;;;4476660;27;657807;-60
2020/12/29 12:59:31;;;;;;;4.53;2.00;;;19.30;34.30;;;;;;4469199;27;657198;-59
2020/12/29 13:02:19;;;;;;;4.30;2.07;;;18.40;33.80;;;;;;4445354;27;658097;-60
2020/12/29 13:05:07;;;;;;;4.90;2.33;;;17.80;34.50;;;;;;4494066;27;656873;-60
2020/12/29 13:07:54;;;;;;;4.07;2.00;;;17.20;36.70;;;;;;4468288;27;656624;-60
2020/12/29 13:10:43;;;;;;;7.17;2.17;;;17.20;37.20;;;;;;4484697;27;657203;-60
2020/12/29 13:13:30;;;;;;;5.07;2.10;;;17.80;36.40;;;;;;4476499;27;657764;-60
2020/12/29 13:16:18;;;;;;;5.33;1.93;;;18.20;35.60;;;;;;4483341;27;657376;-60
2020/12/29 13:19:06;;;;;;;4.20;1.90;;;18.10;33.60;;;;;;4459761;27;658106;-59
2020/12/29 13:21:53;;;;;;;4.03;1.77;;;17.70;35.00;;;;;;4467530;27;656634;-60
2020/12/29 13:24:40;;;;;;;5.80;2.60;;;17.10;35.00;;;;;;4483751;27;658879;-59
2020/12/29 13:27:27;;;;;;;4.50;1.93;;;16.40;35.90;;;;;;4469345;27;656829;-61
2020/12/29 13:30:14;;;;;;;6.10;2.27;;;15.80;37.60;;;;;;4446009;27;656609;-59
2020/12/29 13:33:01;;;;;;;3.73;2.13;;;15.70;38.10;;;;;;4494038;27;658152;-60
2020/12/29 13:35:49;;;;;;;5.43;2.37;;;16.00;38.10;;;;;;4468684;27;657687;-60
2020/12/29 13:38:36;;;;;;;9.47;5.07;;;16.00;37.30;;;;;;4487384;27;657277;-58
2020/12/29 13:41:23;;;;;;;7.73;3.20;;;15.10;39.30;;;;;;4480172;27;656964;-59
2020/12/29 13:44:10;;;;;;;4.97;2.53;;;14.50;40.40;;;;;;4495646;27;657601;-59
2020/12/29 13:46:57;;;;;;;9.57;4.50;;;14.40;40.10;;;;;;4472331;27;656888;-60
2020/12/29 13:49:44;;;;;;;8.80;5.67;;;13.30;41.50;;;;;;4496903;27;657463;-59
2020/12/29 13:52:32;;;;;;;8.60;4.77;;;12.50;43.40;;;;;;4485931;27;656831;-59
2020/12/29 13:55:19;;;;;;;6.90;3.47;;;11.70;44.70;;;;;;4469773;27;659454;-59
2020/12/29 13:58:06;;;;;;;4.77;2.43;;;11.20;45.60;;;;;;4490708;27;656774;-59
2020/12/29 14:00:53;;;;;;;4.73;2.27;;;10.80;46.60;;;;;;4462049;27;657815;-58
2020/12/29 14:03:40;;;;;;;6.70;2.70;;;10.60;46.60;;;;;;4499485;27;657030;-58
2020/12/29 14:06:27;;;;;;;3.28;1.20;;;10.30;47.60;;;;;;4465837;27;656522;-59
2020/12/29 14:09:15;;;;;;;4.50;1.80;;;9.70;49.60;;;;;;4493168;27;656344;-56
2020/12/29 14:12:02;;;;;;;6.47;2.63;;;9.50;49.90;;;;;;4473250;27;655615;-59
2020/12/29 14:14:49;;;;;;;5.53;2.47;;;8.80;51.40;;;;;;4496875;27;656256;-57
2020/12/29 14:17:36;;;;;;;7.07;2.30;;;8.50;52.20;;;;;;4480980;27;656073;-59
2020/12/29 14:20:23;;;;;;;4.63;2.30;;;8.20;53.20;;;;;;4483265;27;656414;-59
2020/12/29 14:23:10;;;;;;;6.70;3.80;;;7.80;54.20;;;;;;4497002;27;656670;-59
2020/12/29 14:25:59;;;;;;;6.50;3.00;;;7.50;55.70;;;;;;4481799;27;655457;-59
2020/12/29 14:28:46;;;;;;;7.20;3.07;;;7.20;56.60;;;;;;4496703;27;655752;-58